Time;durP1;ratioP1;P1;durP2;ratioP2;P2;SDS_P1;SDS_P2;PMS_P1;PMS_P2;Temp;Humidity;BMP_temperature;BMP_pressure;BME280_temperature;BME280_humidity;BME280_pressure;Samples;Min_cycle;Max_cycle;Signal;HPM_P1;HPM_P2
2023/04/21 00:02:22;;;;;;;16.07;13.03;;;;;;;6.68;53.95;99468.13;10280677;28;20241;-39
2023/04/21 00:07:24;;;;;;;16.53;14.63;;;;;;;4.13;59.40;99258.41;10281273;28;20242;-38
2023/04/21 00:12:26;;;;;;;17.43;15.63;;;;;;;4.60;58.44;99330.63;10285609;28;20231;-38
2023/04/21 00:17:27;;;;;;;17.70;15.83;;;;;;;6.42;55.74;99495.69;10297279;28;20238;-39
2023/04/21 00:22:29;;;;;;;17.77;14.83;;;;;;;5.27;56.64;99420.97;10287525;28;20302;-39
2023/04/21 00:27:31;;;;;;;16.17;13.60;;;;;;;6.61;54.19;99491.88;10283301;28;20230;-39
2023/04/21 00:32:32;;;;;;;16.77;13.93;;;;;;;6.08;54.93;99486.00;10290782;28;20234;-38
2023/04/21 00:37:35;;;;;;;15.60;13.60;;;;;;;5.97;54.98;99473.84;10293618;28;20235;-39
2023/04/21 00:42:36;;;;;;;14.73;13.13;;;;;;;5.48;53.88;99423.19;10285245;28;20231;-38
2023/04/21 00:47:38;;;;;;;15.53;13.80;;;;;;;5.67;55.01;99476.09;10288755;28;20624;-39
2023/04/21 00:52:42;;;;;;;16.60;14.77;;;;;;;4.32;58.20;99326.31;10288435;28;20724;-38
2023/04/21 00:57:44;;;;;;;16.50;14.80;;;;;;;5.06;56.40;99414.22;10291833;28;20225;-38
2023/04/21 01:02:46;;;;;;;17.03;14.67;;;;;;;5.47;55.48;99458.72;10296067;28;20779;-38
2023/04/21 01:07:49;;;;;;;16.53;13.63;;;;;;;6.58;53.34;99500.19;10285701;28;20248;-39
2023/04/21 01:12:50;;;;;;;17.00;14.67;;;;;;;6.55;53.14;99498.72;10292104;28;20239;-39
2023/04/21 01:17:53;;;;;;;17.63;14.57;;;;;;;5.44;54.17;99448.41;10288861;28;20244;-38
2023/04/21 01:22:54;;;;;;;18.53;16.07;;;;;;;5.19;55.93;99442.16;10277352;28;20274;-38
2023/04/21 01:27:56;;;;;;;19.00;14.93;;;;;;;5.60;55.40;99474.22;10282359;28;20235;-39
2023/04/21 01:32:59;;;;;;;18.33;16.33;;;;;;;4.65;56.65;99390.09;10281715;28;20231;-38
2023/04/21 01:38:01;;;;;;;21.87;16.90;;;;;;;4.53;57.66;99388.72;10288013;28;20280;-38
2023/04/21 01:43:03;;;;;;;19.03;16.73;;;;;;;4.36;57.84;99362.09;10283093;28;20234;-38
2023/04/21 01:48:05;;;;;;;17.17;15.03;;;;;;;4.20;57.30;99348.66;10283879;28;20234;-38
2023/04/21 01:53:07;;;;;;;18.73;16.23;;;;;;;5.58;54.19;99469.03;10283188;28;20239;-38
2023/04/21 01:58:09;;;;;;;17.87;15.53;;;;;;;6.09;54.09;99508.91;10280530;28;20281;-39
2023/04/21 02:03:10;;;;;;;20.77;15.77;;;;;;;4.72;55.73;99425.59;10270345;28;20231;-38
2023/04/21 02:08:12;;;;;;;16.37;14.57;;;;;;;6.53;51.30;99523.78;10276682;28;20230;-38
2023/04/21 02:13:14;;;;;;;19.07;17.00;;;;;;;3.96;56.88;99336.88;10283312;28;20286;-38
2023/04/21 02:18:16;;;;;;;20.47;17.57;;;;;;;5.16;56.41;99500.81;10277212;28;20244;-38
2023/04/21 02:23:17;;;;;;;23.63;18.57;;;;;;;4.86;57.72;99476.41;10292858;28;20242;-39
2023/04/21 02:28:19;;;;;;;22.67;19.20;;;;;;;4.84;56.69;99483.69;10276461;28;20345;-39
2023/04/21 02:33:21;;;;;;;23.07;18.33;;;;;;;5.05;56.79;99510.69;10281406;28;20867;-38
2023/04/21 02:38:23;;;;;;;23.13;19.10;;;;;;;5.30;55.74;99513.50;10276976;28;20734;-39
2023/04/21 02:43:25;;;;;;;23.43;18.70;;;;;;;4.34;56.99;99422.34;10275778;28;20214;-38
2023/04/21 02:48:27;;;;;;;20.27;17.93;;;;;;;5.43;55.12;99515.75;10279309;28;20311;-38
2023/04/21 02:53:29;;;;;;;21.50;18.80;;;;;;;4.10;57.01;99422.06;10282281;28;20633;-38
2023/04/21 02:58:31;;;;;;;21.77;17.40;;;;;;;4.77;56.49;99497.53;10279601;28;20234;-40
2023/04/21 03:03:32;;;;;;;21.43;17.37;;;;;;;5.31;55.50;99536.41;10264380;28;20217;-38
2023/04/21 03:08:34;;;;;;;21.83;18.73;;;;;;;3.74;57.55;99377.06;10239302;28;20234;-39
2023/04/21 03:13:36;;;;;;;22.10;19.27;;;;;;;3.69;59.09;99372.19;10266978;28;20232;-39
2023/04/21 03:18:38;;;;;;;22.50;17.77;;;;;;;4.73;54.63;99477.66;10275770;28;20680;-38
2023/04/21 03:23:40;;;;;;;24.37;17.93;;;;;;;4.06;57.00;99418.06;10272259;28;20234;-39
2023/04/21 03:28:41;;;;;;;97.77;19.77;;;;;;;3.33;57.21;99328.97;10272654;28;20237;-38
2023/04/21 03:33:43;;;;;;;128.90;22.40;;;;;;;3.08;57.90;99311.03;10271726;28;20347;-38
2023/04/21 03:38:45;;;;;;;101.63;21.10;;;;;;;2.60;59.84;99253.91;10271993;28;20241;-38
2023/04/21 03:43:49;;;;;;;324.03;29.93;;;;;;;2.28;60.37;99228.75;10267859;28;20230;-37
2023/04/21 03:48:51;;;;;;;153.33;25.50;;;;;;;3.00;59.39;99347.94;10278504;28;20277;-39
2023/04/21 03:53:53;;;;;;;189.07;25.17;;;;;;;3.58;57.81;99423.53;10278330;28;21448;-37
2023/04/21 03:58:55;;;;;;;89.83;18.97;;;;;;;2.05;61.34;99227.41;10279780;28;20234;-38
2023/04/21 04:03:56;;;;;;;107.20;20.87;;;;;;;3.19;58.97;99405.22;10279859;28;20230;-39
2023/04/21 04:09:01;;;;;;;135.80;20.37;;;;;;;2.39;60.32;99288.47;10277357;28;20238;-38
2023/04/21 04:14:03;;;;;;;108.93;20.43;;;;;;;2.19;60.79;99257.81;10276995;28;20241;-37
2023/04/21 04:19:05;;;;;;;55.47;20.27;;;;;;;1.42;63.03;99161.00;10276437;28;20617;-38
2023/04/21 04:24:07;;;;;;;187.07;24.80;;;;;;;1.61;63.73;99214.72;10280993;28;20264;-37
2023/04/21 04:29:10;;;;;;;116.10;22.80;;;;;;;2.08;62.89;99301.88;10278856;28;20261;-38
2023/04/21 04:34:12;;;;;;;43.33;18.93;;;;;;;2.69;60.64;99405.47;10279588;28;20246;-38
2023/04/21 04:39:15;;;;;;;102.40;22.10;;;;;;;2.57;60.91;99385.44;10278320;28;20244;-37
2023/04/21 04:44:17;;;;;;;63.17;20.53;;;;;;;1.99;61.83;99323.81;10276759;28;20318;-37
2023/04/21 04:49:19;;;;;;;45.87;20.20;;;;;;;1.36;63.81;99253.00;10275678;28;20748;-38
2023/04/21 04:54:24;;;;;;;43.40;18.37;;;;;;;1.85;62.65;99330.34;10275344;28;20242;-37
2023/04/21 04:59:26;;;;;;;43.53;18.20;;;;;;;3.24;58.96;99497.31;10278904;28;20321;-37
2023/04/21 05:04:30;;;;;;;88.83;19.27;;;;;;;3.34;59.37;99518.44;10278053;28;20270;-37
2023/04/21 05:09:33;;;;;;;44.30;17.87;;;;;;;5.35;54.23;99622.66;10272646;28;20298;-37
2023/04/21 05:14:35;;;;;;;37.80;17.47;;;;;;;3.15;56.61;99501.66;10272212;28;20242;-38
2023/04/21 05:19:36;;;;;;;58.07;18.90;;;;;;;3.76;57.13;99586.81;10275922;28;20239;-38
2023/04/21 05:24:40;;;;;;;77.53;19.30;;;;;;;3.59;57.01;99568.06;10280147;28;20234;-38
2023/04/21 05:29:42;;;;;;;76.17;20.37;;;;;;;3.34;57.93;99566.88;10274724;28;20238;-37
2023/04/21 05:34:43;;;;;;;73.93;19.27;;;;;;;3.80;57.07;99607.56;10279785;28;20225;-38
2023/04/21 05:39:45;;;;;;;45.90;18.53;;;;;;;3.92;56.56;99594.13;10276152;28;20230;-37
2023/04/21 05:44:47;;;;;;;71.43;20.10;;;;;;;2.47;58.90;99496.41;10274122;28;20250;-39
2023/04/21 05:49:52;;;;;;;130.83;22.77;;;;;;;2.29;61.19;99488.34;10275763;28;20738;-37
2023/04/21 05:54:54;;;;;;;73.10;20.70;;;;;;;2.75;59.17;99531.72;10289185;28;20250;-37
2023/04/21 05:59:57;;;;;;;105.73;22.03;;;;;;;3.48;59.00;99615.88;10272803;28;20246;-37
2023/04/21 06:04:58;;;;;;;118.50;22.40;;;;;;;3.21;58.98;99590.16;10278807;28;20622;-38
2023/04/21 06:10:00;;;;;;;115.43;23.90;;;;;;;3.91;57.88;99635.66;10274200;28;20243;-37
2023/04/21 06:15:02;;;;;;;135.33;24.73;;;;;;;2.94;59.67;99567.06;10272081;28;20242;-37
2023/04/21 06:20:05;;;;;;;87.20;21.70;;;;;;;3.43;60.14;99626.88;10272658;28;20241;-38
2023/04/21 06:25:07;;;;;;;133.70;23.60;;;;;;;3.18;60.07;99608.97;10275821;28;20240;-37
2023/04/21 06:30:08;;;;;;;87.80;24.20;;;;;;;3.63;60.14;99632.97;10273152;28;20230;-37
2023/04/21 06:35:10;;;;;;;46.67;21.77;;;;;;;4.13;59.45;99663.59;10276500;28;20233;-37
2023/04/21 06:40:14;;;;;;;79.67;23.43;;;;;;;3.75;60.16;99640.72;10275564;28;20237;-37
2023/04/21 06:45:17;;;;;;;34.67;19.83;;;;;;;5.19;56.87;99702.94;10268670;28;20841;-37
2023/04/21 06:50:18;;;;;;;29.97;20.97;;;;;;;4.59;57.16;99671.66;10278436;28;20967;-37
2023/04/21 06:55:20;;;;;;;29.47;21.83;;;;;;;4.97;57.36;99676.88;10280041;28;20233;-36
2023/04/21 07:00:22;;;;;;;27.97;21.17;;;;;;;4.81;58.26;99665.13;10271076;28;20242;-37
2023/04/21 07:05:24;;;;;;;27.33;20.57;;;;;;;5.69;58.21;99707.72;10278625;28;20245;-37
2023/04/21 07:10:26;;;;;;;24.83;19.87;;;;;;;4.66;59.66;99669.25;10271684;28;20735;-37
2023/04/21 07:15:28;;;;;;;25.50;19.50;;;;;;;5.84;57.43;99723.94;10273451;28;20227;-36
2023/04/21 07:20:30;;;;;;;25.53;20.43;;;;;;;4.02;60.42;99609.03;10277733;28;20238;-38
2023/04/21 07:25:31;;;;;;;25.90;19.53;;;;;;;5.01;58.16;99667.63;10282412;28;20226;-37
2023/04/21 07:30:33;;;;;;;24.30;20.47;;;;;;;5.35;58.11;99674.91;10286732;28;20252;-37
2023/04/21 07:35:35;;;;;;;28.90;22.33;;;;;;;4.39;60.91;99628.53;10283588;28;20655;-37
2023/04/21 07:40:37;;;;;;;25.83;20.37;;;;;;;6.70;58.49;99770.13;10289150;28;20240;-37
2023/04/21 07:45:39;;;;;;;23.87;17.97;;;;;;;5.85;57.67;99693.72;10289304;28;20603;-37
2023/04/21 07:50:41;;;;;;;21.97;18.17;;;;;;;5.45;59.23;99667.69;10285898;28;20240;-37
2023/04/21 07:55:43;;;;;;;21.73;17.00;;;;;;;6.84;57.59;99763.41;10281367;28;21715;-37
2023/04/21 08:00:44;;;;;;;19.00;15.63;;;;;;;6.43;57.40;99723.28;10295901;28;20234;-37
2023/04/21 08:05:46;;;;;;;19.07;15.73;;;;;;;7.09;56.99;99752.81;10288828;28;20234;-38
2023/04/21 08:10:48;;;;;;;18.17;15.13;;;;;;;7.67;56.28;99786.53;10281951;28;20238;-37
2023/04/21 08:15:53;;;;;;;18.87;15.30;;;;;;;7.18;57.37;99719.91;10283659;28;20744;-37
2023/04/21 08:20:56;;;;;;;28.37;24.23;;;;;;;8.69;55.27;99825.28;10286116;28;20238;-37
2023/04/21 08:26:00;;;;;;;18.13;16.23;;;;;;;7.14;56.22;99644.09;10282781;28;20244;-37
2023/04/21 08:31:01;;;;;;;19.73;16.07;;;;;;;6.92;57.88;99621.59;10279136;28;20611;-38
2023/04/21 08:36:04;;;;;;;18.77;16.17;;;;;;;8.78;55.61;99769.06;10287424;28;20239;-37
2023/04/21 08:41:19;;;;;;;17.97;15.97;;;;;;;8.45;55.94;99707.00;10287725;28;20260;-38
2023/04/21 08:46:22;;;;;;;17.60;15.70;;;;;;;9.31;55.96;99765.84;10278610;28;20796;-38
2023/04/21 08:51:26;;;;;;;16.63;14.63;;;;;;;9.14;54.50;99663.66;10288402;28;20337;-38
2023/04/21 08:56:28;;;;;;;15.23;13.53;;;;;;;10.27;53.18;99692.19;10284164;28;20233;-38
2023/04/21 09:01:30;;;;;;;14.60;13.07;;;;;;;9.53;54.15;99610.09;10284089;28;20346;-38
2023/04/21 09:06:44;;;;;;;13.83;12.37;;;;;;;11.79;51.95;99720.91;10279023;28;20301;-38
2023/04/21 09:11:57;;;;;;;13.07;11.67;;;;;;;11.31;51.92;99639.47;10279604;28;20727;-38
2023/04/21 09:17:03;;;;;;;8.77;6.80;;;;;;;11.37;49.35;99607.38;10285610;28;20585;-39
2023/04/21 09:22:05;;;;;;;7.80;7.00;;;;;;;12.64;48.75;99659.09;10279622;28;20689;-39
2023/04/21 09:27:09;;;;;;;7.77;6.97;;;;;;;12.38;48.90;99560.50;10279275;28;20230;-38
2023/04/21 09:32:11;;;;;;;6.10;5.50;;;;;;;11.96;47.68;99471.22;10279197;28;20245;-39
2023/04/21 09:37:13;;;;;;;8.63;4.80;;;;;;;13.73;46.99;99573.00;10279518;28;20816;-39
2023/04/21 09:42:19;;;;;;;5.10;4.03;;;;;;;12.67;46.76;99427.00;10282577;28;20799;-39
2023/04/21 09:47:21;;;;;;;4.27;3.87;;;;;;;12.93;45.35;99435.03;10283404;28;20243;-38
2023/04/21 09:52:26;;;;;;;4.17;3.80;;;;;;;12.41;46.18;99372.25;10287668;28;20293;-38
2023/04/21 09:57:31;;;;;;;4.77;4.27;;;;;;;13.60;46.01;99429.53;10277319;28;20239;-39
2023/04/21 10:02:35;;;;;;;5.07;4.10;;;;;;;13.51;46.22;99381.59;10282683;28;20230;-40
2023/04/21 10:07:38;;;;;;;6.07;4.80;;;;;;;14.50;45.67;99438.56;10282394;28;20238;-39
2023/04/21 10:12:40;;;;;;;4.87;4.37;;;;;;;14.42;45.08;99361.56;10278361;28;20690;-38
2023/04/21 10:17:43;;;;;;;4.47;4.00;;;;;;;14.97;45.13;99371.66;10279492;28;20226;-39
2023/04/21 10:22:44;;;;;;;4.10;3.60;;;;;;;14.11;44.89;99300.56;10285707;28;20578;-39
2023/04/21 10:27:46;;;;;;;5.20;3.57;;;;;;;14.51;44.68;99311.81;10277573;28;20668;-40
2023/04/21 10:33:00;;;;;;;4.67;4.10;;;;;;;13.96;44.65;99239.00;10281066;28;20310;-39
2023/04/21 10:38:05;;;;;;;5.10;4.60;;;;;;;15.63;44.77;99299.94;10280933;28;20239;-39
2023/04/21 10:43:46;;;;;;;4.60;4.20;;;;;;;15.38;43.71;99221.06;10279609;28;20329;-39
2023/04/21 10:48:53;;;;;;;5.20;4.67;;;;;;;14.08;45.00;99091.97;10281670;28;20247;-40
2023/04/21 10:53:55;;;;;;;4.83;4.40;;;;;;;14.92;44.41;99135.25;10284801;28;20245;-40
2023/04/21 10:58:59;;;;;;;5.13;4.50;;;;;;;14.68;44.35;99090.44;10281220;28;20236;-40
2023/04/21 11:06:31;;;;;;;5.30;4.80;;;;;;;12.86;49.22;99173.75;10344589;27;20868;-68
2023/04/21 11:11:35;;;;;;;5.10;4.60;;;;;;;13.50;48.35;99173.81;10357549;28;20237;-66
2023/04/21 11:16:41;;;;;;;4.83;4.33;;;;;;;13.32;48.21;99118.13;10353514;28;20297;-68
2023/04/21 11:21:47;;;;;;;4.77;4.00;;;;;;;13.24;48.44;99105.75;10351923;28;20225;-67
2023/04/21 11:26:51;;;;;;;4.03;3.60;;;;;;;13.50;47.19;99105.78;10359504;28;20257;-68
2023/04/21 11:31:52;;;;;;;3.30;3.00;;;;;;;13.46;46.93;99089.28;10352370;28;20613;-67
2023/04/21 11:36:55;;;;;;;2.60;2.40;;;;;;;13.37;46.62;99061.84;10350219;28;20782;-68
2023/04/21 11:41:56;;;;;;;4.30;3.43;;;;;;;14.81;45.81;99105.56;10353524;28;20245;-67
2023/04/21 11:46:58;;;;;;;4.20;3.17;;;;;;;14.61;45.74;99071.69;10352325;28;20233;-67
2023/04/21 11:52:00;;;;;;;3.40;3.10;;;;;;;14.78;45.57;99067.28;10353174;28;20230;-67
2023/04/21 11:57:01;;;;;;;3.63;3.00;;;;;;;14.95;45.18;99077.44;10344353;28;20739;-67
2023/04/21 12:02:03;;;;;;;4.27;3.30;;;;;;;15.49;44.90;99091.66;10343456;28;20335;-67
2023/04/21 12:07:05;;;;;;;4.30;3.33;;;;;;;14.24;45.95;99003.63;10351454;28;21486;-67
2023/04/21 12:12:08;;;;;;;4.07;3.33;;;;;;;14.68;45.53;99005.06;10345534;28;20234;-67
2023/04/21 12:17:10;;;;;;;3.33;3.03;;;;;;;15.50;44.68;99020.53;10295127;28;20234;-67
2023/04/21 12:22:14;;;;;;;4.33;3.93;;;;;;;14.71;45.08;98963.38;10331561;28;20317;-68
2023/04/21 12:27:17;;;;;;;5.57;3.27;;;;;;;15.14;45.43;98995.44;10322356;28;20302;-67
2023/04/21 12:32:20;;;;;;;4.67;3.87;;;;;;;14.63;45.44;98955.66;10319575;28;20828;-67
2023/04/21 12:37:22;;;;;;;5.17;3.27;;;;;;;16.23;43.57;99018.28;10330638;28;20763;-67
2023/04/21 12:42:23;;;;;;;8.10;4.10;;;;;;;15.18;44.14;98914.13;10326991;28;20229;-67
2023/04/21 12:47:25;;;;;;;3.90;3.50;;;;;;;15.28;43.93;98900.88;10327490;28;20238;-67
2023/04/21 12:52:27;;;;;;;3.93;3.53;;;;;;;16.46;42.88;98978.75;10325205;28;20245;-67
2023/04/21 12:57:30;;;;;;;4.20;3.63;;;;;;;16.64;43.14;98945.31;10320626;28;20230;-67
2023/04/21 13:02:35;;;;;;;4.17;3.77;;;;;;;15.97;42.77;98886.63;10321287;28;20788;-67
2023/04/21 13:07:38;;;;;;;4.47;4.07;;;;;;;16.65;42.81;98919.94;10323680;28;20329;-67
2023/04/21 13:19:06;;;;;;;5.73;4.93;;;;;;;14.79;45.25;98769.16;10452087;28;20231;-91
2023/04/21 13:24:08;;;;;;;6.27;5.37;;;;;;;16.00;44.33;98807.91;10461412;28;20315;-91
2023/04/21 13:29:14;;;;;;;6.13;4.90;;;;;;;16.32;43.47;98826.25;10446453;28;20987;-90
2023/04/21 13:34:16;;;;;;;5.63;5.03;;;;;;;16.77;44.22;98858.53;10447977;28;20214;-90
2023/04/21 13:39:17;;;;;;;6.13;5.40;;;;;;;16.31;44.05;98803.81;10432387;28;20318;-90
2023/04/21 13:44:22;;;;;;;5.73;5.13;;;;;;;17.56;43.99;98859.28;10450947;28;20262;-91
2023/04/21 13:49:24;;;;;;;6.27;5.67;;;;;;;17.11;44.58;98817.94;10435283;28;20301;-90
2023/04/21 13:54:26;;;;;;;7.20;6.50;;;;;;;17.15;44.11;98802.03;10442840;28;20231;-90
2023/04/21 13:59:28;;;;;;;7.13;6.23;;;;;;;16.21;44.06;98717.28;10440986;28;20325;-91
2023/04/21 14:04:30;;;;;;;6.67;5.93;;;;;;;16.86;44.07;98766.25;10451118;28;20397;-91
2023/04/21 14:09:33;;;;;;;7.23;5.80;;;;;;;16.82;43.56;98747.03;10448960;28;20259;-89
2023/04/21 14:14:36;;;;;;;7.23;6.53;;;;;;;17.07;43.67;98727.59;10468316;28;20234;-91
2023/04/21 14:19:39;;;;;;;7.63;6.00;;;;;;;17.61;43.50;98743.03;10446601;28;20235;-90
2023/04/21 14:24:41;;;;;;;8.13;6.73;;;;;;;17.15;43.74;98697.44;10458861;28;20232;-90
2023/04/21 14:29:43;;;;;;;9.00;6.47;;;;;;;17.05;43.08;98674.91;10449596;28;20775;-91
2023/04/21 14:34:45;;;;;;;6.50;5.63;;;;;;;17.09;43.51;98694.94;10462407;28;20238;-91
2023/04/21 14:39:47;;;;;;;8.27;6.00;;;;;;;16.56;43.73;98633.25;10449249;28;20242;-91
2023/04/21 14:44:48;;;;;;;5.20;4.70;;;;;;;17.15;43.33;98664.19;10445894;28;20246;-91
2023/04/21 14:49:51;;;;;;;6.93;6.20;;;;;;;17.68;42.51;98700.41;10445329;28;20326;-90
2023/04/21 14:54:56;;;;;;;7.77;5.60;;;;;;;17.34;43.33;98670.03;10446838;28;20230;-90
2023/04/21 14:59:58;;;;;;;5.43;4.53;;;;;;;17.20;43.33;98674.25;10470982;28;20251;-90
2023/04/21 15:05:00;;;;;;;5.63;4.63;;;;;;;18.22;41.80;98695.88;10484561;28;20262;-92
2023/04/21 15:10:04;;;;;;;3.27;2.90;;;;;;;14.71;44.52;98713.81;10487224;28;20767;-88
2023/04/21 15:15:07;;;;;;;2.43;1.80;;;;;;;11.66;52.37;98824.81;10486527;28;20315;-89
2023/04/21 15:20:33;;;;;;;6.43;2.47;;;;;;;10.60;59.62;98849.03;10436457;28;20248;-93
2023/04/21 15:25:46;;;;;;;4.27;2.90;;;;;;;11.69;57.14;98891.41;10437113;28;20248;-92
2023/04/21 15:30:50;;;;;;;3.90;2.37;;;;;;;12.52;54.98;98834.97;10428264;28;20247;-92
2023/04/21 15:35:54;;;;;;;2.23;2.00;;;;;;;13.29;54.08;98785.41;10421659;28;20540;-93
2023/04/21 15:40:56;;;;;;;2.27;2.07;;;;;;;13.80;54.02;98796.69;10421085;28;20231;-92
2023/04/21 15:46:03;;;;;;;2.13;1.90;;;;;;;13.98;51.60;98756.25;10452852;28;20242;-94
2023/04/21 15:51:05;;;;;;;2.07;1.90;;;;;;;15.28;51.79;98780.41;10462847;28;20235;-93
2023/04/21 15:56:10;;;;;;;2.37;1.73;;;;;;;14.91;52.22;98783.47;10464164;28;20236;-93
2023/04/21 16:01:21;;;;;;;3.87;2.40;;;;;;;15.07;51.90;98725.31;10475019;28;20239;-93
2023/04/21 16:06:23;;;;;;;2.37;2.17;;;;;;;14.85;52.78;98713.56;10468648;28;20242;-93
2023/04/21 16:11:27;;;;;;;4.80;2.47;;;;;;;15.90;50.98;98751.06;10455614;28;20255;-93
2023/04/21 16:16:29;;;;;;;2.90;2.30;;;;;;;15.08;52.22;98721.56;10459255;28;20328;-92
2023/04/21 16:21:32;;;;;;;3.97;2.10;;;;;;;15.78;50.71;98753.84;10451914;28;20322;-93
2023/04/21 16:26:36;;;;;;;2.80;2.20;;;;;;;14.68;51.62;98745.78;10447361;28;20330;-93
2023/04/21 16:31:38;;;;;;;5.17;2.40;;;;;;;14.47;53.47;98713.00;10465025;28;20235;-93
2023/04/21 16:36:45;;;;;;;3.57;2.17;;;;;;;14.44;54.24;98712.66;10454425;28;20232;-93
2023/04/21 16:41:55;;;;;;;2.53;2.17;;;;;;;15.17;52.44;98772.38;10454762;28;20286;-93
2023/04/21 16:46:57;;;;;;;6.10;2.10;;;;;;;14.67;52.01;98734.16;10462756;28;20243;-93
2023/04/21 16:51:59;;;;;;;3.20;2.33;;;;;;;14.69;53.38;98756.28;10459508;28;20216;-93
2023/04/21 16:57:05;;;;;;;3.73;2.27;;;;;;;15.51;52.14;98773.31;10459010;28;20239;-93
2023/04/21 17:02:07;;;;;;;2.40;2.20;;;;;;;14.04;55.38;98704.25;10464140;28;20211;-93
2023/04/21 17:07:12;;;;;;;3.17;2.67;;;;;;;14.45;54.89;98725.09;10460447;28;20238;-92
2023/04/21 17:12:28;;;;;;;4.00;2.30;;;;;;;15.52;53.49;98754.19;10469014;28;20672;-93
2023/04/21 17:17:43;;;;;;;3.53;2.20;;;;;;;15.45;52.27;98739.22;10450571;28;20247;-92
2023/04/21 17:22:45;;;;;;;2.87;2.30;;;;;;;15.13;52.09;98739.69;10454716;28;20235;-93
2023/04/21 17:27:47;;;;;;;2.67;2.43;;;;;;;14.81;52.27;98744.69;10433860;28;20246;-92
2023/04/21 17:32:50;;;;;;;3.70;3.30;;;;;;;15.11;51.50;98748.00;10427464;28;20673;-93
2023/04/21 17:38:09;;;;;;;3.07;2.83;;;;;;;16.99;48.49;98811.84;10474862;28;20287;-93
2023/04/21 17:43:15;;;;;;;2.87;2.63;;;;;;;15.32;50.03;98730.38;10482633;28;20238;-92
2023/04/21 17:48:40;;;;;;;3.00;2.70;;;;;;;14.71;50.65;98748.81;10457995;28;20231;-92
2023/04/21 17:53:48;;;;;;;4.40;3.47;;;;;;;15.25;49.15;98788.16;10450291;28;20348;-92
2023/04/21 17:58:58;;;;;;;3.30;3.07;;;;;;;15.61;48.48;98807.75;10459580;28;20230;-93
2023/04/21 18:04:17;;;;;;;;;;;;;;;;;;;;;
2023/04/21 18:09:47;;;;;;;3.73;3.40;;;;;;;14.42;49.92;98755.16;10460088;28;20228;-92
2023/04/21 18:15:17;;;;;;;5.00;3.87;;;;;;;14.54;48.34;98783.72;10443721;28;20319;-92
2023/04/21 18:21:17;;;;;;;5.70;4.47;;;;;;;15.14;47.54;98844.53;10445888;28;20270;-93
2023/04/21 18:59:53;;;;;;;5.93;5.33;;;;;;;15.84;44.71;98817.59;10418863;22;20633;-40
2023/04/21 19:04:55;;;;;;;5.73;5.13;;;;;;;15.36;45.64;98789.19;10486787;28;20716;-40
2023/04/21 19:09:57;;;;;;;5.90;5.30;;;;;;;15.44;46.65;98804.97;10487236;28;20234;-40
2023/04/21 19:14:59;;;;;;;6.37;4.93;;;;;;;16.50;45.51;98855.72;10468060;28;20231;-40
2023/04/21 19:20:00;;;;;;;6.77;5.87;;;;;;;14.34;48.79;98797.53;10482774;28;20235;-40
2023/04/21 19:25:02;;;;;;;5.97;5.10;;;;;;;16.72;44.46;98853.06;10510923;22;20241;-68
2023/04/21 19:30:04;;;;;;;5.73;4.90;;;;;;;15.33;45.76;98775.16;10518476;28;20733;-68
2023/04/21 19:35:06;;;;;;;4.97;4.50;;;;;;;15.88;45.06;98821.44;10526011;28;20604;-68
2023/04/21 19:40:09;;;;;;;6.67;5.13;;;;;;;15.64;44.70;98786.50;10523235;28;20230;-68
2023/04/21 19:45:11;;;;;;;4.73;4.00;;;;;;;16.12;44.56;98813.22;10519374;28;20234;-68
2023/04/21 19:50:12;;;;;;;4.40;4.00;;;;;;;16.14;44.16;98828.09;10522539;28;20245;-68
2023/04/21 19:55:15;;;;;;;4.37;3.93;;;;;;;14.24;46.48;98767.69;10523249;28;20230;-67
2023/04/21 20:00:17;;;;;;;4.70;4.20;;;;;;;15.00;46.26;98786.59;10520331;28;20245;-67
2023/04/21 20:05:18;;;;;;;5.53;4.47;;;;;;;15.48;46.37;98846.56;10512118;28;20758;-68
2023/04/21 20:10:20;;;;;;;4.07;3.67;;;;;;;15.72;46.00;98841.91;10524132;28;20265;-68
2023/04/21 20:15:22;;;;;;;3.90;3.53;;;;;;;15.70;46.31;98803.59;10517401;28;20227;-67
2023/04/21 20:20:24;;;;;;;5.23;4.10;;;;;;;16.42;45.28;98807.50;10522310;28;20242;-67
2023/04/21 20:25:26;;;;;;;5.33;4.83;;;;;;;15.11;47.74;98784.94;10521280;28;20237;-68
2023/04/21 20:30:28;;;;;;;5.50;4.77;;;;;;;16.11;46.85;98812.41;10517838;28;20575;-68
2023/04/21 20:35:32;;;;;;;5.20;4.60;;;;;;;14.28;49.60;98733.88;10500313;28;20316;-68
2023/04/21 20:40:33;;;;;;;9.47;5.93;;;;;;;13.21;52.91;98778.47;10521009;28;20587;-67
2023/04/21 20:45:37;;;;;;;5.70;4.80;;;;;;;14.73;48.98;98830.16;10516941;28;20706;-68
2023/04/21 20:50:39;;;;;;;6.40;5.10;;;;;;;13.76;51.43;98782.06;10516691;28;20239;-67
2023/04/21 20:55:41;;;;;;;6.37;4.40;;;;;;;17.04;44.83;98819.19;10515143;28;20278;-68
2023/04/21 21:00:43;;;;;;;4.30;3.90;;;;;;;16.44;45.15;98786.47;10518866;28;20230;-68
2023/04/21 21:05:45;;;;;;;4.47;4.07;;;;;;;16.77;45.39;98812.63;10511016;28;20642;-67
2023/04/21 21:10:46;;;;;;;6.10;4.20;;;;;;;16.28;45.50;98784.59;10521686;28;20316;-68
2023/04/21 21:15:48;;;;;;;4.33;3.93;;;;;;;15.44;46.44;98770.75;10522303;28;20760;-68
2023/04/21 21:20:49;;;;;;;5.07;3.90;;;;;;;14.00;48.91;98796.38;10521037;28;20242;-68
2023/04/21 21:25:51;;;;;;;4.57;4.17;;;;;;;13.63;50.45;98809.97;10518192;28;20234;-68
2023/04/21 21:30:52;;;;;;;5.17;4.67;;;;;;;13.84;50.41;98839.03;10522383;28;21221;-68
2023/04/21 21:35:54;;;;;;;5.17;4.53;;;;;;;14.97;48.25;98802.44;10519257;28;20238;-68
2023/04/21 21:40:56;;;;;;;5.63;5.07;;;;;;;14.50;49.32;98808.63;10515843;28;20792;-68
2023/04/21 21:45:57;;;;;;;7.03;5.63;;;;;;;13.13;52.10;98785.97;10520718;28;20226;-68
2023/04/21 21:50:59;;;;;;;8.97;7.43;;;;;;;13.66;51.45;98839.88;10521027;28;20230;-67
2023/04/21 21:56:00;;;;;;;9.17;7.50;;;;;;;13.18;53.44;98864.88;10519672;28;20321;-68
2023/04/21 22:01:02;;;;;;;8.47;7.30;;;;;;;13.32;52.73;98835.19;10519095;28;20237;-68
2023/04/21 22:06:05;;;;;;;9.30;6.60;;;;;;;13.71;52.42;98862.59;10513936;28;20299;-69
2023/04/21 22:11:07;;;;;;;8.00;6.53;;;;;;;13.10;53.29;98835.63;10510836;28;20326;-68
2023/04/21 22:16:08;;;;;;;6.40;5.80;;;;;;;13.34;52.61;98860.78;10504374;28;20238;-69
2023/04/21 22:21:10;;;;;;;6.83;5.27;;;;;;;12.84;53.73;98834.03;10508627;28;20288;-69
2023/04/21 22:26:12;;;;;;;6.57;5.40;;;;;;;13.54;53.20;98881.22;10505949;28;20408;-68
2023/04/21 22:31:13;;;;;;;7.23;5.83;;;;;;;12.81;54.52;98837.19;10511435;28;20919;-69
2023/04/21 22:36:15;;;;;;;6.23;5.63;;;;;;;14.99;51.13;98889.22;10520315;28;20238;-66
2023/04/21 22:41:17;;;;;;;5.87;5.27;;;;;;;14.60;51.63;98884.25;10505062;28;20241;-66
2023/04/21 22:46:18;;;;;;;6.30;5.63;;;;;;;14.21;51.67;98838.91;10510602;28;20708;-66
2023/04/21 22:51:20;;;;;;;6.00;5.40;;;;;;;12.69;55.00;98847.81;10513195;28;20242;-66
2023/04/21 22:56:22;;;;;;;6.40;5.10;;;;;;;13.69;52.71;98806.38;10513264;28;20662;-66
2023/04/21 23:01:23;;;;;;;7.57;5.77;;;;;;;13.79;52.42;98821.94;10507120;28;20234;-68
2023/04/21 23:06:25;;;;;;;6.03;5.20;;;;;;;13.32;53.41;98864.75;10511455;28;20604;-66
2023/04/21 23:11:27;;;;;;;7.40;5.60;;;;;;;13.06;54.60;98890.84;10516023;28;20238;-66
2023/04/21 23:16:28;;;;;;;5.50;5.00;;;;;;;12.81;54.29;98848.72;10507837;28;20646;-68
2023/04/21 23:21:30;;;;;;;5.47;4.97;;;;;;;14.47;52.21;98900.63;10508624;28;20353;-66
2023/04/21 23:26:32;;;;;;;5.87;5.27;;;;;;;13.02;53.48;98835.91;10516074;28;20230;-66
2023/04/21 23:31:33;;;;;;;6.27;5.67;;;;;;;11.93;56.76;98801.34;10508851;28;20823;-64
2023/04/21 23:36:35;;;;;;;7.27;6.13;;;;;;;12.20;56.21;98855.63;10516120;28;20199;-67
2023/04/21 23:41:37;;;;;;;7.43;6.67;;;;;;;12.87;54.70;98876.53;10505858;28;20239;-66
2023/04/21 23:46:38;;;;;;;6.93;6.23;;;;;;;12.42;55.53;98841.81;10513237;28;20708;-66
2023/04/21 23:51:40;;;;;;;6.93;6.23;;;;;;;13.15;54.34;98862.63;10510706;28;20244;-66
2023/04/21 23:56:42;;;;;;;9.50;7.60;;;;;;;11.73;56.91;98796.97;10516053;28;20292;-66
